Terminal Aerodrome Forecast
Issued by NWS

Home | Current Version | Previous Version | Text Only | Print | Product List | Glossary On
Versions: 1 2 3 4 5 6 7 8 9 10 11 12 13 14
000
FTUS42 KTBW 230500
TAFPGD
TAF
KPGD 230526Z 2306/2406 VRB03KT P6SM SCT250
     FM230900 VRB03KT P6SM VCSH FEW015 SCT250
     FM231500 21005KT P6SM SCT025 SCT250
     FM231700 25007KT P6SM VCTS SCT035CB SCT100 BKN250
     FM240000 VRB06KT P6SM FEW025 SCT150=

USA.gov is the U.S. government's official web portal to all federal, state and local government web resources and services.